createdAt,value
2022-11-05T00:00:36.776Z,68.21
2022-11-05T00:03:28.283Z,68.28
2022-11-05T00:06:14.513Z,68.24
2022-11-05T00:09:00.482Z,68.09
2022-11-05T00:11:47.110Z,68.01
2022-11-05T00:14:33.462Z,68.24
2022-11-05T00:17:00.885Z,68.07
2022-11-05T00:19:28.195Z,68.15
2022-11-05T00:22:16.780Z,68.33
2022-11-05T00:25:09.721Z,68.27
2022-11-05T00:27:36.989Z,68.27
2022-11-05T00:30:05.269Z,68.35
2022-11-05T00:32:32.949Z,68.45
2022-11-05T00:35:00.301Z,68.32
2022-11-05T00:37:28.639Z,68.33
2022-11-05T00:39:56.038Z,68.29
2022-11-05T00:42:42.432Z,68.28
2022-11-05T00:45:10.284Z,68.41
2022-11-05T00:47:58.152Z,68.27
2022-11-05T00:50:25.474Z,68.42
2022-11-05T00:52:57.886Z,68.33
2022-11-05T00:55:28.523Z,68.52
2022-11-05T00:57:57.128Z,68.35
2022-11-05T01:00:26.469Z,68.46
2022-11-05T01:02:53.818Z,68.60
2022-11-05T01:05:21.176Z,68.33
2022-11-05T01:07:48.425Z,68.44
2022-11-05T01:10:15.884Z,68.35
2022-11-05T01:12:43.314Z,68.48
2022-11-05T01:15:10.657Z,68.51
2022-11-05T01:17:37.940Z,68.44
2022-11-05T01:20:05.521Z,68.47
2022-11-05T01:22:32.795Z,68.68
2022-11-05T01:25:00.135Z,68.45
2022-11-05T01:27:27.760Z,68.51
2022-11-05T01:29:55.045Z,68.60
2022-11-05T01:32:22.272Z,68.61
2022-11-05T01:34:49.526Z,68.68
2022-11-05T01:37:16.811Z,68.68
2022-11-05T01:39:43.961Z,68.55
2022-11-05T01:42:18.623Z,68.75
2022-11-05T01:45:08.891Z,68.62
2022-11-05T01:47:36.103Z,68.62
2022-11-05T01:50:16.250Z,68.69
2022-11-05T01:52:43.646Z,68.75
2022-11-05T01:55:13.941Z,68.65
2022-11-05T01:57:41.795Z,68.76
2022-11-05T02:00:10.603Z,68.56
2022-11-05T02:02:40.398Z,68.70
2022-11-05T02:05:12.352Z,68.77
2022-11-05T02:07:40.633Z,68.64
2022-11-05T02:10:14.435Z,68.78
2022-11-05T02:12:48.605Z,68.86
2022-11-05T02:15:40.647Z,68.74
2022-11-05T02:18:20.472Z,68.64
2022-11-05T02:21:18.793Z,68.74
2022-11-05T02:24:27.602Z,68.76
2022-11-05T02:26:57.654Z,68.79
2022-11-05T02:29:39.840Z,68.73
2022-11-05T02:32:18.891Z,68.75
2022-11-05T02:34:53.912Z,68.93
2022-11-05T02:37:41.034Z,68.86
2022-11-05T02:40:20.906Z,68.98
2022-11-05T02:43:15.138Z,68.85
2022-11-05T02:46:30.406Z,68.93
2022-11-05T02:49:12.598Z,68.88
2022-11-05T02:51:52.244Z,68.84
2022-11-05T02:55:04.352Z,69.12
2022-11-05T02:57:36.771Z,68.93
2022-11-05T03:00:29.117Z,69.19
2022-11-05T03:02:56.377Z,69.07
2022-11-05T03:05:34.915Z,69.05
2022-11-05T03:08:12.942Z,69.27
2022-11-05T03:10:50.693Z,68.97
2022-11-05T03:13:21.681Z,68.96
2022-11-05T03:16:05.758Z,69.17
2022-11-05T03:18:42.554Z,69.25
2022-11-05T03:21:21.488Z,69.14
2022-11-05T03:23:58.081Z,68.99
2022-11-05T03:26:39.076Z,69.27
2022-11-05T03:29:11.636Z,69.17
2022-11-05T03:31:41.918Z,69.44
2022-11-05T03:34:13.064Z,69.36
2022-11-05T03:36:49.138Z,69.31
2022-11-05T03:39:22.226Z,69.41
2022-11-05T03:41:53.173Z,69.27
2022-11-05T03:44:27.229Z,69.40
2022-11-05T03:47:02.484Z,69.31
2022-11-05T03:49:36.722Z,69.59
2022-11-05T03:52:09.752Z,69.63
2022-11-05T03:54:37.082Z,69.62
2022-11-05T03:57:20.482Z,69.30
2022-11-05T03:59:50.081Z,69.49
2022-11-05T04:02:20.692Z,69.56
2022-11-05T04:04:48.417Z,69.43
2022-11-05T04:07:34.164Z,69.56
2022-11-05T04:10:19.958Z,69.52
2022-11-05T04:13:05.741Z,69.46
2022-11-05T04:15:55.695Z,69.62
2022-11-05T04:18:22.931Z,69.62
2022-11-05T04:21:08.688Z,69.58
2022-11-05T04:23:54.663Z,69.70
2022-11-05T04:26:23.586Z,69.55
2022-11-05T04:29:10.581Z,69.58
2022-11-05T04:31:38.637Z,69.63
2022-11-05T04:34:06.212Z,69.80
2022-11-05T04:36:33.669Z,69.70
2022-11-05T04:39:00.825Z,69.53
2022-11-05T04:41:28.126Z,69.68
2022-11-05T04:43:55.309Z,69.78
2022-11-05T04:46:22.693Z,69.52
2022-11-05T04:48:50.011Z,69.83
2022-11-05T04:51:17.340Z,69.76
2022-11-05T04:53:44.642Z,69.69
2022-11-05T04:56:15.825Z,69.83
2022-11-05T04:58:43.242Z,69.83
2022-11-05T05:01:16.308Z,69.66
2022-11-05T05:03:44.144Z,69.76
2022-11-05T05:06:11.599Z,69.82
2022-11-05T05:08:38.788Z,69.70
2022-11-05T05:11:09.089Z,69.93
2022-11-05T05:13:36.282Z,69.72
2022-11-05T05:16:08.308Z,70.06
2022-11-05T05:18:35.978Z,69.93
2022-11-05T05:21:22.517Z,69.93
2022-11-05T05:23:49.962Z,69.72
2022-11-05T05:26:17.335Z,69.77
2022-11-05T05:28:44.688Z,70.07
2022-11-05T05:31:11.882Z,69.88
2022-11-05T05:33:39.127Z,70.01
2022-11-05T05:36:11.145Z,69.98
2022-11-05T05:38:39.061Z,69.96
2022-11-05T05:41:06.545Z,69.92
2022-11-05T05:43:34.310Z,70.01
2022-11-05T05:46:05.839Z,70.01
2022-11-05T05:48:33.694Z,70.12
2022-11-05T05:51:09.436Z,70.13
2022-11-05T05:53:37.245Z,70.14
2022-11-05T05:56:05.796Z,70.16
2022-11-05T05:58:35.963Z,70.27
2022-11-05T06:01:06.680Z,70.23
2022-11-05T06:03:34.815Z,70.15
2022-11-05T06:06:04.375Z,70.29
2022-11-05T06:08:32.369Z,70.33
2022-11-05T06:11:00.498Z,70.23
2022-11-05T06:13:28.518Z,70.16
2022-11-05T06:16:03.220Z,70.39
2022-11-05T06:18:31.808Z,70.38
2022-11-05T06:21:06.772Z,70.55
2022-11-05T06:23:35.144Z,70.29
2022-11-05T06:26:03.734Z,70.38
2022-11-05T06:28:31.189Z,70.39
2022-11-05T06:30:58.309Z,70.44
2022-11-05T06:33:26.367Z,70.32
2022-11-05T06:35:54.364Z,70.44
2022-11-05T06:38:21.455Z,70.40
2022-11-05T06:40:48.574Z,70.46
2022-11-05T06:43:15.871Z,70.49
2022-11-05T06:45:43.085Z,70.36
2022-11-05T06:48:10.229Z,70.39
2022-11-05T06:50:37.409Z,70.53
2022-11-05T06:53:05.503Z,70.44
2022-11-05T06:55:32.652Z,70.62
2022-11-05T06:57:59.987Z,70.63
2022-11-05T07:00:27.118Z,70.46
2022-11-05T07:02:56.030Z,70.47
2022-11-05T07:05:23.765Z,70.69
2022-11-05T07:07:51.034Z,70.72
2022-11-05T07:10:19.142Z,70.85
2022-11-05T07:12:46.288Z,70.80
2022-11-05T07:15:13.677Z,70.58
2022-11-05T07:17:41.090Z,70.58
2022-11-05T07:20:09.637Z,70.72
2022-11-05T07:22:37.183Z,70.73
2022-11-05T07:25:05.381Z,70.73
2022-11-05T07:27:37.577Z,70.83
2022-11-05T07:30:06.941Z,70.89
2022-11-05T07:32:38.502Z,70.91
2022-11-05T07:35:07.177Z,70.90
2022-11-05T07:37:42.359Z,70.89
2022-11-05T07:40:10.765Z,70.87
2022-11-05T07:42:38.018Z,70.90
2022-11-05T07:45:05.693Z,71.01
2022-11-05T07:47:32.831Z,71.02
2022-11-05T07:49:59.954Z,70.92
2022-11-05T07:52:27.302Z,71.13
2022-11-05T07:54:54.462Z,70.95
2022-11-05T07:57:21.599Z,70.95
2022-11-05T07:59:48.772Z,71.04
2022-11-05T08:02:15.980Z,71.19
2022-11-05T08:04:43.384Z,71.12
2022-11-05T08:07:10.430Z,70.97
2022-11-05T08:09:37.534Z,71.19
2022-11-05T08:12:05.048Z,71.25
2022-11-05T08:14:32.363Z,71.32
2022-11-05T08:16:59.475Z,71.41
2022-11-05T08:19:26.598Z,71.28
2022-11-05T08:21:53.740Z,71.36
2022-11-05T08:24:20.877Z,71.19
2022-11-05T08:26:48.027Z,71.27
2022-11-05T08:29:15.265Z,71.29
2022-11-05T08:31:42.414Z,71.47
2022-11-05T08:34:09.696Z,71.44
2022-11-05T08:36:36.838Z,71.45
2022-11-05T08:39:04.368Z,71.52
2022-11-05T08:41:31.497Z,71.58
2022-11-05T08:43:58.631Z,71.55
2022-11-05T08:46:25.836Z,71.32
2022-11-05T08:48:53.265Z,71.41
2022-11-05T08:51:20.377Z,71.54
2022-11-05T08:53:47.503Z,71.48
2022-11-05T08:56:14.671Z,71.67
2022-11-05T08:58:41.792Z,71.62
2022-11-05T09:01:08.953Z,71.59
2022-11-05T09:03:36.436Z,71.56
2022-11-05T09:06:03.721Z,71.48
2022-11-05T09:08:30.981Z,71.59
2022-11-05T09:10:58.113Z,71.74
2022-11-05T09:13:25.956Z,71.58
2022-11-05T09:15:53.781Z,71.81
2022-11-05T09:18:21.213Z,71.70
2022-11-05T09:20:48.414Z,71.78
2022-11-05T09:23:15.792Z,71.88
2022-11-05T09:25:44.282Z,71.73
2022-11-05T09:28:16.756Z,71.81
2022-11-05T09:30:49.922Z,71.80
2022-11-05T09:33:19.644Z,71.77
2022-11-05T09:35:46.846Z,71.66
2022-11-05T09:38:14.044Z,71.50
2022-11-05T09:40:53.493Z,71.72
2022-11-05T09:43:31.236Z,71.71
2022-11-05T09:46:03.417Z,71.70
2022-11-05T09:48:32.791Z,71.72
2022-11-05T09:51:00.006Z,71.88
2022-11-05T09:53:28.265Z,71.79
2022-11-05T09:55:57.972Z,71.79
2022-11-05T09:59:00.700Z,71.77
2022-11-05T10:01:35.461Z,71.84
2022-11-05T10:04:09.381Z,71.92
2022-11-05T10:06:42.994Z,72.03
2022-11-05T10:09:31.423Z,71.99
2022-11-05T10:12:07.121Z,71.82
2022-11-05T10:14:42.031Z,71.86
2022-11-05T10:17:22.470Z,71.95
2022-11-05T10:20:03.411Z,71.98
2022-11-05T10:22:30.493Z,71.88
2022-11-05T10:24:57.728Z,71.88
2022-11-05T10:27:27.853Z,72.07
2022-11-05T10:29:55.555Z,72.04
2022-11-05T10:32:31.537Z,72.02
2022-11-05T10:35:01.166Z,71.99
2022-11-05T10:37:29.526Z,72.16
2022-11-05T10:39:56.927Z,71.94
2022-11-05T10:42:46.476Z,71.94
2022-11-05T10:45:29.609Z,72.13
2022-11-05T10:48:35.281Z,71.98
2022-11-05T10:51:04.468Z,71.78
2022-11-05T10:53:34.198Z,72.20
2022-11-05T10:56:01.325Z,72.04
2022-11-05T10:58:30.673Z,72.07
2022-11-05T11:00:57.819Z,72.11
2022-11-05T11:03:48.242Z,71.94
2022-11-05T11:06:18.049Z,71.94
2022-11-05T11:08:47.292Z,71.99
2022-11-05T11:11:27.960Z,72.15
2022-11-05T11:13:58.196Z,72.21
2022-11-05T11:16:28.293Z,72.13
2022-11-05T11:18:58.593Z,72.23
2022-11-05T11:21:26.974Z,72.23
2022-11-05T11:23:56.945Z,72.16
2022-11-05T11:26:33.161Z,72.16
2022-11-05T11:29:07.419Z,72.31
2022-11-05T11:31:38.663Z,72.30
2022-11-05T11:34:26.298Z,72.03
2022-11-05T11:37:09.508Z,72.12
2022-11-05T11:39:38.598Z,72.24
2022-11-05T11:42:18.797Z,72.18
2022-11-05T11:44:48.436Z,72.04
2022-11-05T11:47:18.960Z,72.15
2022-11-05T11:50:00.500Z,72.36
2022-11-05T11:52:37.513Z,72.22
2022-11-05T11:55:19.456Z,72.20
2022-11-05T11:58:04.825Z,72.15
2022-11-05T12:00:39.898Z,72.14
2022-11-05T12:03:29.456Z,72.10
2022-11-05T12:06:11.590Z,72.07
2022-11-05T12:09:06.490Z,72.14
2022-11-05T12:11:45.861Z,72.05
2022-11-05T12:14:46.609Z,72.15
2022-11-05T12:17:38.803Z,72.19
2022-11-05T12:20:24.352Z,72.12
2022-11-05T12:23:20.594Z,72.26
2022-11-05T12:26:06.284Z,72.14
2022-11-05T12:28:57.880Z,72.26
2022-11-05T12:31:44.479Z,72.30
2022-11-05T12:34:23.710Z,72.04
2022-11-05T12:37:12.348Z,72.14
2022-11-05T12:39:51.613Z,72.20
2022-11-05T12:42:21.729Z,72.40
2022-11-05T12:45:25.783Z,72.40
2022-11-05T12:48:09.477Z,72.37
2022-11-05T12:50:48.445Z,72.39
2022-11-05T12:53:40.990Z,72.30
2022-11-05T12:56:18.465Z,72.42
2022-11-05T12:58:50.882Z,72.26
2022-11-05T13:01:38.462Z,72.26
2022-11-05T13:04:14.703Z,72.21
2022-11-05T13:06:46.965Z,72.39
2022-11-05T13:09:23.357Z,72.32
2022-11-05T13:11:54.693Z,72.40
2022-11-05T13:14:27.147Z,72.35
2022-11-05T13:17:00.388Z,72.21
2022-11-05T13:19:37.541Z,72.46
2022-11-05T13:22:18.952Z,72.24
2022-11-05T13:24:57.874Z,72.41
2022-11-05T13:28:16.381Z,72.34
2022-11-05T13:30:51.868Z,72.18
2022-11-05T13:33:23.792Z,72.29
2022-11-05T13:36:32.849Z,72.38
2022-11-05T13:39:19.725Z,72.36
2022-11-05T13:42:28.322Z,72.63
2022-11-05T13:45:28.004Z,72.47
2022-11-05T13:48:13.476Z,72.26
2022-11-05T13:50:49.808Z,72.30
2022-11-05T13:53:47.950Z,72.31
2022-11-05T13:56:17.807Z,72.34
2022-11-05T13:58:55.401Z,72.46
2022-11-05T14:01:34.782Z,72.24
2022-11-05T14:04:03.216Z,72.13
2022-11-05T14:06:33.621Z,72.29
2022-11-05T14:09:07.196Z,72.37
2022-11-05T14:11:48.919Z,72.31
2022-11-05T14:14:23.457Z,72.37
2022-11-05T14:17:13.084Z,72.39
2022-11-05T14:19:51.405Z,72.41
2022-11-05T14:22:33.735Z,72.14
2022-11-05T14:25:22.341Z,72.21
2022-11-05T14:27:52.203Z,72.31
2022-11-05T14:30:41.569Z,72.30
2022-11-05T14:33:37.484Z,72.17
2022-11-05T14:36:37.745Z,72.27
2022-11-05T14:39:38.716Z,72.31
2022-11-05T14:42:15.081Z,72.18
2022-11-05T14:44:56.700Z,72.26
2022-11-05T14:47:27.567Z,72.24
2022-11-05T14:50:09.222Z,72.23
2022-11-05T14:52:38.654Z,72.13
2022-11-05T14:55:07.420Z,72.23
2022-11-05T14:57:43.558Z,72.19
2022-11-05T15:00:40.507Z,72.17
2022-11-05T15:03:33.964Z,72.30
2022-11-05T15:06:23.629Z,72.16
2022-11-05T15:08:50.700Z,72.35
2022-11-05T15:11:29.239Z,72.29
2022-11-05T15:13:56.257Z,72.33
2022-11-05T15:16:27.182Z,72.16
2022-11-05T15:18:56.668Z,72.36
2022-11-05T15:21:25.251Z,72.40
2022-11-05T15:23:56.839Z,72.29
2022-11-05T15:26:28.658Z,72.35
2022-11-05T15:28:56.697Z,72.17
2022-11-05T15:31:37.398Z,72.38
2022-11-05T15:34:35.982Z,72.49
2022-11-05T15:37:21.500Z,72.31
2022-11-05T15:39:50.468Z,72.31
2022-11-05T15:42:25.904Z,72.20
2022-11-05T15:44:55.633Z,72.08
2022-11-05T15:47:25.807Z,71.96
2022-11-05T15:50:02.291Z,72.18
2022-11-05T15:52:36.684Z,72.28
2022-11-05T15:55:23.880Z,72.25
2022-11-05T15:58:01.244Z,72.33
2022-11-05T16:00:31.169Z,72.30
2022-11-05T16:03:01.927Z,72.27
2022-11-05T16:05:32.782Z,72.21
2022-11-05T16:08:01.829Z,72.24
2022-11-05T16:10:31.396Z,72.15
2022-11-05T16:13:27.371Z,72.32
2022-11-05T16:15:56.485Z,72.45
2022-11-05T16:18:29.666Z,72.44
2022-11-05T16:21:23.665Z,72.59
2022-11-05T16:23:57.311Z,72.37
2022-11-05T16:26:55.889Z,72.38
2022-11-05T16:29:40.355Z,72.29
2022-11-05T16:32:17.003Z,72.41
2022-11-05T16:34:53.865Z,72.49
2022-11-05T16:37:24.535Z,72.58
2022-11-05T16:39:52.626Z,72.54
2022-11-05T16:42:22.556Z,72.67
2022-11-05T16:44:50.789Z,72.48
2022-11-05T16:47:19.068Z,72.37
2022-11-05T16:49:48.281Z,72.43
2022-11-05T16:52:16.155Z,72.44
2022-11-05T16:54:43.503Z,72.46
2022-11-05T16:57:31.316Z,72.37
2022-11-05T17:00:00.321Z,72.44
2022-11-05T17:02:28.331Z,72.44
2022-11-05T17:04:55.572Z,72.51
2022-11-05T17:07:22.871Z,72.55
2022-11-05T17:09:50.042Z,72.62
2022-11-05T17:12:17.152Z,72.49
2022-11-05T17:14:44.606Z,72.45
2022-11-05T17:17:11.812Z,72.51
2022-11-05T17:19:42.518Z,72.33
2022-11-05T17:22:09.919Z,72.45
2022-11-05T17:24:37.636Z,72.44
2022-11-05T17:27:04.718Z,72.46
2022-11-05T17:29:31.877Z,72.26
2022-11-05T17:31:59.019Z,72.57
2022-11-05T17:34:26.220Z,72.39
2022-11-05T17:36:53.403Z,72.51
2022-11-05T17:39:20.447Z,72.59
2022-11-05T17:41:48.001Z,72.49
2022-11-05T17:44:15.116Z,72.57
2022-11-05T17:46:42.271Z,72.46
2022-11-05T17:49:09.377Z,72.62
2022-11-05T17:51:36.500Z,72.63
2022-11-05T17:54:04.291Z,72.42
2022-11-05T17:56:34.964Z,72.69
2022-11-05T17:59:03.651Z,72.74
2022-11-05T18:01:34.718Z,72.56
2022-11-05T18:04:08.338Z,72.61
2022-11-05T18:06:41.123Z,72.60
2022-11-05T18:09:10.224Z,72.62
2022-11-05T18:11:39.080Z,72.60
2022-11-05T18:14:06.817Z,72.69
2022-11-05T18:16:34.458Z,72.50
2022-11-05T18:19:01.942Z,72.71
2022-11-05T18:21:29.005Z,72.53
2022-11-05T18:23:56.155Z,72.63
2022-11-05T18:26:23.367Z,72.69
2022-11-05T18:28:50.585Z,72.70
2022-11-05T18:31:22.193Z,72.63
2022-11-05T18:33:50.719Z,72.70
2022-11-05T18:36:22.551Z,72.48
2022-11-05T18:38:49.931Z,72.72
2022-11-05T18:41:18.887Z,72.82
2022-11-05T18:43:46.232Z,72.63
2022-11-05T18:46:35.937Z,72.47
2022-11-05T18:49:00.865Z,72.44
2022-11-05T18:51:28.471Z,72.71
2022-11-05T18:53:56.360Z,72.57
2022-11-05T18:56:24.572Z,72.56
2022-11-05T18:59:14.807Z,72.64
2022-11-05T19:01:41.194Z,72.57
2022-11-05T19:04:09.516Z,72.63
2022-11-05T19:06:37.523Z,72.69
2022-11-05T19:09:06.695Z,72.77
2022-11-05T19:11:33.929Z,72.66
2022-11-05T19:14:01.342Z,72.64
2022-11-05T19:16:30.394Z,72.63
2022-11-05T19:19:02.616Z,72.68
2022-11-05T19:21:30.558Z,72.66
2022-11-05T19:24:02.639Z,72.82
2022-11-05T19:26:30.414Z,72.47
2022-11-05T19:28:59.822Z,72.61
2022-11-05T19:31:30.439Z,72.68
2022-11-05T19:33:57.942Z,72.69
2022-11-05T19:36:25.631Z,72.79
2022-11-05T19:38:57.942Z,72.64
2022-11-05T19:41:26.044Z,72.73
2022-11-05T19:43:54.474Z,72.53
2022-11-05T19:46:23.376Z,72.69
2022-11-05T19:48:50.821Z,72.73
2022-11-05T19:51:20.713Z,72.67
2022-11-05T19:53:47.923Z,72.55
2022-11-05T19:56:18.374Z,72.56
2022-11-05T19:58:45.913Z,72.66
2022-11-05T20:01:14.700Z,72.50
2022-11-05T20:03:42.040Z,72.57
2022-11-05T20:06:15.624Z,72.51
2022-11-05T20:09:14.783Z,72.41
2022-11-05T20:11:30.190Z,72.50
2022-11-05T20:13:57.762Z,72.46
2022-11-05T20:16:36.961Z,72.50
2022-11-05T20:19:06.713Z,72.43
2022-11-05T20:21:34.571Z,72.51
2022-11-05T20:24:02.614Z,72.47
2022-11-05T20:26:30.312Z,72.56
2022-11-05T20:28:57.373Z,72.57
2022-11-05T20:31:24.435Z,72.47
2022-11-05T20:33:52.234Z,72.24
2022-11-05T20:36:22.331Z,72.52
2022-11-05T20:38:50.919Z,72.63
2022-11-05T20:41:19.319Z,72.43
2022-11-05T20:43:48.110Z,72.50
2022-11-05T20:46:19.459Z,72.53
2022-11-05T20:48:46.755Z,72.44
2022-11-05T20:51:16.833Z,72.60
2022-11-05T20:53:46.264Z,72.35
2022-11-05T20:56:18.164Z,72.39
2022-11-05T20:58:45.430Z,72.32
2022-11-05T21:01:13.679Z,72.30
2022-11-05T21:03:40.859Z,72.46
2022-11-05T21:06:08.064Z,72.42
2022-11-05T21:08:35.722Z,72.55
2022-11-05T21:11:03.697Z,72.42
2022-11-05T21:13:30.888Z,72.27
2022-11-05T21:15:59.824Z,72.29
2022-11-05T21:18:30.262Z,72.25
2022-11-05T21:20:59.891Z,71.94
2022-11-05T21:23:28.373Z,72.02
2022-11-05T21:25:55.917Z,72.06
2022-11-05T21:28:23.478Z,72.13
2022-11-05T21:30:50.649Z,72.21
2022-11-05T21:33:18.811Z,72.16
2022-11-05T21:35:48.267Z,72.17
2022-11-05T21:38:16.723Z,72.29
2022-11-05T21:40:45.036Z,72.21
2022-11-05T21:43:13.162Z,72.07
2022-11-05T21:45:41.751Z,72.10
2022-11-05T21:48:09.620Z,71.97
2022-11-05T21:50:58.598Z,72.00
2022-11-05T21:53:44.969Z,72.07
2022-11-05T21:56:39.986Z,72.19
2022-11-05T21:59:28.611Z,72.16
2022-11-05T22:02:02.036Z,72.12
2022-11-05T22:04:31.501Z,72.16
2022-11-05T22:06:59.330Z,71.91
2022-11-05T22:09:26.750Z,71.97
2022-11-05T22:11:54.215Z,71.84
2022-11-05T22:14:21.982Z,71.76
2022-11-05T22:16:49.093Z,71.88
2022-11-05T22:19:16.784Z,71.90
2022-11-05T22:21:43.951Z,72.04
2022-11-05T22:24:11.121Z,71.83
2022-11-05T22:26:39.724Z,72.00
2022-11-05T22:29:07.615Z,71.81
2022-11-05T22:31:36.688Z,71.90
2022-11-05T22:34:05.052Z,71.81
2022-11-05T22:36:33.226Z,71.87
2022-11-05T22:39:00.472Z,71.78
2022-11-05T22:41:27.780Z,71.68
2022-11-05T22:43:54.877Z,71.66
2022-11-05T22:46:24.296Z,71.75
2022-11-05T22:48:52.556Z,71.61
2022-11-05T22:51:25.649Z,71.72
2022-11-05T22:53:53.491Z,71.64
2022-11-05T22:56:23.566Z,71.80
2022-11-05T22:58:50.769Z,71.77
2022-11-05T23:01:19.326Z,71.45
2022-11-05T23:03:47.924Z,71.51
2022-11-05T23:06:42.461Z,71.57
2022-11-05T23:09:35.493Z,71.35
2022-11-05T23:12:05.667Z,71.42
2022-11-05T23:14:33.037Z,71.59
2022-11-05T23:17:18.948Z,71.54
2022-11-05T23:20:04.808Z,71.47
2022-11-05T23:22:51.322Z,71.53
2022-11-05T23:25:21.573Z,71.68
2022-11-05T23:27:52.377Z,71.55
2022-11-05T23:30:25.277Z,71.47
2022-11-05T23:32:55.949Z,71.51
2022-11-05T23:35:43.403Z,71.31
2022-11-05T23:38:29.435Z,71.43
2022-11-05T23:41:19.985Z,71.39
2022-11-05T23:44:05.869Z,71.44
2022-11-05T23:46:51.890Z,71.40
2022-11-05T23:49:19.203Z,71.61
2022-11-05T23:51:46.412Z,71.40
2022-11-05T23:54:13.719Z,71.32
2022-11-05T23:56:41.191Z,71.34
2022-11-05T23:59:08.719Z,71.42
